sensor_id;sensor_type;location;lat;lon;timestamp;P1;durP1;ratioP1;P2;durP2;ratioP2
25481;SDS011;13395;50.752;4.268;2023-02-18T00:01:10;14.63;;;7.97;;
25481;SDS011;13395;50.752;4.268;2023-02-18T00:03:37;12.38;;;7.43;;
25481;SDS011;13395;50.752;4.268;2023-02-18T00:08:39;18.00;;;6.93;;
25481;SDS011;13395;50.752;4.268;2023-02-18T00:11:06;10.93;;;5.95;;
25481;SDS011;13395;50.752;4.268;2023-02-18T00:13:32;13.50;;;7.82;;
25481;SDS011;13395;50.752;4.268;2023-02-18T00:16:05;9.35;;;6.45;;
25481;SDS011;13395;50.752;4.268;2023-02-18T00:18:32;11.95;;;6.95;;
25481;SDS011;13395;50.752;4.268;2023-02-18T00:20:58;13.93;;;6.75;;
25481;SDS011;13395;50.752;4.268;2023-02-18T00:23:24;10.77;;;7.13;;
25481;SDS011;13395;50.752;4.268;2023-02-18T00:25:57;11.40;;;6.10;;
25481;SDS011;13395;50.752;4.268;2023-02-18T00:28:27;12.18;;;5.65;;
25481;SDS011;13395;50.752;4.268;2023-02-18T00:30:52;9.30;;;6.05;;
25481;SDS011;13395;50.752;4.268;2023-02-18T00:33:18;10.73;;;5.05;;
25481;SDS011;13395;50.752;4.268;2023-02-18T00:35:44;9.25;;;5.75;;
25481;SDS011;13395;50.752;4.268;2023-02-18T00:38:10;8.85;;;5.72;;
25481;SDS011;13395;50.752;4.268;2023-02-18T00:40:39;7.82;;;5.57;;
25481;SDS011;13395;50.752;4.268;2023-02-18T00:43:05;6.68;;;4.68;;
25481;SDS011;13395;50.752;4.268;2023-02-18T00:45:31;7.57;;;4.82;;
25481;SDS011;13395;50.752;4.268;2023-02-18T00:47:57;7.72;;;4.03;;
25481;SDS011;13395;50.752;4.268;2023-02-18T00:50:22;8.02;;;4.50;;
25481;SDS011;13395;50.752;4.268;2023-02-18T00:52:48;7.35;;;4.18;;
25481;SDS011;13395;50.752;4.268;2023-02-18T00:55:14;9.75;;;3.95;;
25481;SDS011;13395;50.752;4.268;2023-02-18T00:57:39;8.13;;;3.80;;
25481;SDS011;13395;50.752;4.268;2023-02-18T01:00:05;5.80;;;2.97;;
25481;SDS011;13395;50.752;4.268;2023-02-18T01:02:32;4.03;;;2.60;;
25481;SDS011;13395;50.752;4.268;2023-02-18T01:04:58;4.07;;;2.53;;
25481;SDS011;13395;50.752;4.268;2023-02-18T01:07:23;6.65;;;2.55;;
25481;SDS011;13395;50.752;4.268;2023-02-18T01:09:49;4.88;;;2.20;;
25481;SDS011;13395;50.752;4.268;2023-02-18T01:12:15;2.70;;;1.92;;
25481;SDS011;13395;50.752;4.268;2023-02-18T01:14:41;3.95;;;1.65;;
25481;SDS011;13395;50.752;4.268;2023-02-18T01:17:07;3.85;;;2.38;;
25481;SDS011;13395;50.752;4.268;2023-02-18T01:19:32;2.95;;;1.88;;
25481;SDS011;13395;50.752;4.268;2023-02-18T01:21:58;2.58;;;1.67;;
25481;SDS011;13395;50.752;4.268;2023-02-18T01:24:24;3.03;;;1.75;;
25481;SDS011;13395;50.752;4.268;2023-02-18T01:26:49;4.35;;;1.90;;
25481;SDS011;13395;50.752;4.268;2023-02-18T01:29:15;2.50;;;1.83;;
25481;SDS011;13395;50.752;4.268;2023-02-18T01:31:41;2.65;;;1.63;;
25481;SDS011;13395;50.752;4.268;2023-02-18T01:34:06;2.45;;;1.70;;
25481;SDS011;13395;50.752;4.268;2023-02-18T01:36:32;2.05;;;1.20;;
25481;SDS011;13395;50.752;4.268;2023-02-18T01:38:58;3.30;;;1.40;;
25481;SDS011;13395;50.752;4.268;2023-02-18T01:41:23;2.05;;;1.40;;
25481;SDS011;13395;50.752;4.268;2023-02-18T01:44:09;3.42;;;1.77;;
25481;SDS011;13395;50.752;4.268;2023-02-18T01:46:42;3.03;;;1.83;;
25481;SDS011;13395;50.752;4.268;2023-02-18T01:49:08;3.15;;;1.83;;
25481;SDS011;13395;50.752;4.268;2023-02-18T01:51:43;3.60;;;2.15;;
25481;SDS011;13395;50.752;4.268;2023-02-18T01:56:45;3.95;;;2.38;;
25481;SDS011;13395;50.752;4.268;2023-02-18T01:59:16;4.70;;;3.10;;
25481;SDS011;13395;50.752;4.268;2023-02-18T02:01:45;4.35;;;3.05;;
25481;SDS011;13395;50.752;4.268;2023-02-18T02:04:11;5.95;;;3.33;;
25481;SDS011;13395;50.752;4.268;2023-02-18T02:06:37;4.43;;;3.05;;
25481;SDS011;13395;50.752;4.268;2023-02-18T02:09:03;5.15;;;3.78;;
25481;SDS011;13395;50.752;4.268;2023-02-18T02:11:39;4.53;;;3.15;;
25481;SDS011;13395;50.752;4.268;2023-02-18T02:14:17;4.25;;;2.95;;
25481;SDS011;13395;50.752;4.268;2023-02-18T02:17:22;4.55;;;3.28;;
25481;SDS011;13395;50.752;4.268;2023-02-18T02:26:06;4.72;;;3.03;;
25481;SDS011;13395;50.752;4.268;2023-02-18T02:33:40;4.63;;;3.22;;
25481;SDS011;13395;50.752;4.268;2023-02-18T02:36:22;5.53;;;3.17;;
25481;SDS011;13395;50.752;4.268;2023-02-18T02:39:11;6.60;;;3.58;;
25481;SDS011;13395;50.752;4.268;2023-02-18T02:46:56;6.28;;;3.72;;
25481;SDS011;13395;50.752;4.268;2023-02-18T02:52:53;5.75;;;3.70;;
25481;SDS011;13395;50.752;4.268;2023-02-18T02:54:59;6.85;;;4.18;;
25481;SDS011;13395;50.752;4.268;2023-02-18T03:00:01;9.43;;;4.95;;
25481;SDS011;13395;50.752;4.268;2023-02-18T03:02:37;7.32;;;4.93;;
25481;SDS011;13395;50.752;4.268;2023-02-18T03:11:04;7.80;;;4.70;;
25481;SDS011;13395;50.752;4.268;2023-02-18T03:16:00;8.75;;;5.03;;
25481;SDS011;13395;50.752;4.268;2023-02-18T03:21:14;7.57;;;4.43;;
25481;SDS011;13395;50.752;4.268;2023-02-18T03:23:55;7.47;;;4.57;;
25481;SDS011;13395;50.752;4.268;2023-02-18T03:26:21;7.68;;;4.68;;
25481;SDS011;13395;50.752;4.268;2023-02-18T03:28:49;7.70;;;5.13;;
25481;SDS011;13395;50.752;4.268;2023-02-18T03:31:17;8.25;;;5.40;;
25481;SDS011;13395;50.752;4.268;2023-02-18T03:33:56;7.38;;;5.13;;
25481;SDS011;13395;50.752;4.268;2023-02-18T03:36:28;5.90;;;4.40;;
25481;SDS011;13395;50.752;4.268;2023-02-18T03:39:01;7.18;;;4.03;;
25481;SDS011;13395;50.752;4.268;2023-02-18T03:41:29;7.90;;;4.78;;
25481;SDS011;13395;50.752;4.268;2023-02-18T03:43:59;6.97;;;4.78;;
25481;SDS011;13395;50.752;4.268;2023-02-18T03:46:28;7.63;;;5.72;;
25481;SDS011;13395;50.752;4.268;2023-02-18T03:48:54;7.80;;;4.53;;
25481;SDS011;13395;50.752;4.268;2023-02-18T03:51:19;6.70;;;4.53;;
25481;SDS011;13395;50.752;4.268;2023-02-18T03:53:45;7.97;;;4.53;;
25481;SDS011;13395;50.752;4.268;2023-02-18T03:56:11;7.65;;;4.15;;
25481;SDS011;13395;50.752;4.268;2023-02-18T03:58:37;7.50;;;5.18;;
25481;SDS011;13395;50.752;4.268;2023-02-18T04:01:03;6.28;;;4.13;;
25481;SDS011;13395;50.752;4.268;2023-02-18T04:03:29;5.63;;;3.78;;
25481;SDS011;13395;50.752;4.268;2023-02-18T04:05:55;6.20;;;3.75;;
25481;SDS011;13395;50.752;4.268;2023-02-18T04:08:21;5.43;;;4.15;;
25481;SDS011;13395;50.752;4.268;2023-02-18T04:10:47;5.95;;;3.33;;
25481;SDS011;13395;50.752;4.268;2023-02-18T04:13:13;7.28;;;4.45;;
25481;SDS011;13395;50.752;4.268;2023-02-18T04:15:39;5.38;;;3.67;;
25481;SDS011;13395;50.752;4.268;2023-02-18T04:18:04;8.63;;;4.72;;
25481;SDS011;13395;50.752;4.268;2023-02-18T04:20:30;5.50;;;3.78;;
25481;SDS011;13395;50.752;4.268;2023-02-18T04:22:55;6.53;;;4.10;;
25481;SDS011;13395;50.752;4.268;2023-02-18T04:25:21;7.43;;;4.53;;
25481;SDS011;13395;50.752;4.268;2023-02-18T04:27:47;6.95;;;3.75;;
25481;SDS011;13395;50.752;4.268;2023-02-18T04:30:12;7.07;;;4.30;;
25481;SDS011;13395;50.752;4.268;2023-02-18T04:32:38;5.93;;;4.15;;
25481;SDS011;13395;50.752;4.268;2023-02-18T04:35:04;6.70;;;4.30;;
25481;SDS011;13395;50.752;4.268;2023-02-18T04:37:30;6.78;;;3.55;;
25481;SDS011;13395;50.752;4.268;2023-02-18T04:39:56;6.00;;;3.42;;
25481;SDS011;13395;50.752;4.268;2023-02-18T04:42:21;9.93;;;3.17;;
25481;SDS011;13395;50.752;4.268;2023-02-18T04:44:47;5.25;;;3.90;;
25481;SDS011;13395;50.752;4.268;2023-02-18T04:47:12;5.43;;;3.35;;
25481;SDS011;13395;50.752;4.268;2023-02-18T04:49:38;6.45;;;4.07;;
25481;SDS011;13395;50.752;4.268;2023-02-18T04:52:04;5.13;;;3.60;;
25481;SDS011;13395;50.752;4.268;2023-02-18T04:54:30;6.13;;;3.45;;
25481;SDS011;13395;50.752;4.268;2023-02-18T04:56:55;5.35;;;3.25;;
25481;SDS011;13395;50.752;4.268;2023-02-18T04:59:21;5.45;;;2.83;;
25481;SDS011;13395;50.752;4.268;2023-02-18T05:01:47;5.80;;;3.00;;
25481;SDS011;13395;50.752;4.268;2023-02-18T05:04:13;4.95;;;3.13;;
25481;SDS011;13395;50.752;4.268;2023-02-18T05:06:38;7.45;;;2.95;;
25481;SDS011;13395;50.752;4.268;2023-02-18T05:09:06;4.97;;;2.83;;
25481;SDS011;13395;50.752;4.268;2023-02-18T05:11:32;4.82;;;3.00;;
25481;SDS011;13395;50.752;4.268;2023-02-18T05:13:58;3.88;;;2.53;;
25481;SDS011;13395;50.752;4.268;2023-02-18T05:16:23;4.13;;;2.50;;
25481;SDS011;13395;50.752;4.268;2023-02-18T05:18:49;4.07;;;2.58;;
25481;SDS011;13395;50.752;4.268;2023-02-18T05:21:14;4.50;;;2.58;;
25481;SDS011;13395;50.752;4.268;2023-02-18T05:23:40;3.65;;;2.03;;
25481;SDS011;13395;50.752;4.268;2023-02-18T05:26:06;3.72;;;2.42;;
25481;SDS011;13395;50.752;4.268;2023-02-18T05:28:32;5.05;;;2.05;;
25481;SDS011;13395;50.752;4.268;2023-02-18T05:30:57;6.38;;;2.47;;
25481;SDS011;13395;50.752;4.268;2023-02-18T05:33:23;3.88;;;2.28;;
25481;SDS011;13395;50.752;4.268;2023-02-18T05:35:49;4.75;;;2.10;;
25481;SDS011;13395;50.752;4.268;2023-02-18T05:38:14;3.58;;;1.95;;
25481;SDS011;13395;50.752;4.268;2023-02-18T05:40:40;3.80;;;1.90;;
25481;SDS011;13395;50.752;4.268;2023-02-18T05:43:06;4.30;;;1.88;;
25481;SDS011;13395;50.752;4.268;2023-02-18T05:45:31;4.90;;;1.98;;
25481;SDS011;13395;50.752;4.268;2023-02-18T05:47:57;4.47;;;1.80;;
25481;SDS011;13395;50.752;4.268;2023-02-18T05:50:22;6.50;;;2.25;;
25481;SDS011;13395;50.752;4.268;2023-02-18T05:52:48;5.60;;;2.60;;
25481;SDS011;13395;50.752;4.268;2023-02-18T05:55:14;9.95;;;1.98;;
25481;SDS011;13395;50.752;4.268;2023-02-18T05:57:40;5.88;;;2.40;;
25481;SDS011;13395;50.752;4.268;2023-02-18T06:00:06;7.90;;;2.25;;
25481;SDS011;13395;50.752;4.268;2023-02-18T06:02:34;9.32;;;2.42;;
25481;SDS011;13395;50.752;4.268;2023-02-18T06:05:00;7.30;;;2.33;;
25481;SDS011;13395;50.752;4.268;2023-02-18T06:07:26;10.48;;;2.70;;
25481;SDS011;13395;50.752;4.268;2023-02-18T06:09:51;7.85;;;2.58;;
25481;SDS011;13395;50.752;4.268;2023-02-18T06:12:17;12.10;;;2.83;;
25481;SDS011;13395;50.752;4.268;2023-02-18T06:14:43;9.52;;;3.33;;
25481;SDS011;13395;50.752;4.268;2023-02-18T06:17:10;17.13;;;3.33;;
25481;SDS011;13395;50.752;4.268;2023-02-18T06:19:37;8.98;;;2.38;;
25481;SDS011;13395;50.752;4.268;2023-02-18T06:22:02;15.77;;;2.60;;
25481;SDS011;13395;50.752;4.268;2023-02-18T06:24:29;22.70;;;3.33;;
25481;SDS011;13395;50.752;4.268;2023-02-18T06:26:54;11.07;;;2.35;;
25481;SDS011;13395;50.752;4.268;2023-02-18T06:29:20;19.10;;;3.05;;
25481;SDS011;13395;50.752;4.268;2023-02-18T06:31:46;9.85;;;2.80;;
25481;SDS011;13395;50.752;4.268;2023-02-18T06:34:11;7.70;;;2.10;;
25481;SDS011;13395;50.752;4.268;2023-02-18T06:36:37;13.68;;;2.88;;
25481;SDS011;13395;50.752;4.268;2023-02-18T06:39:04;12.55;;;2.47;;
25481;SDS011;13395;50.752;4.268;2023-02-18T06:41:30;14.35;;;2.83;;
25481;SDS011;13395;50.752;4.268;2023-02-18T06:43:56;19.85;;;3.13;;
25481;SDS011;13395;50.752;4.268;2023-02-18T06:46:22;9.15;;;2.03;;
25481;SDS011;13395;50.752;4.268;2023-02-18T06:48:47;10.40;;;3.08;;
25481;SDS011;13395;50.752;4.268;2023-02-18T06:51:13;15.73;;;3.33;;
25481;SDS011;13395;50.752;4.268;2023-02-18T06:53:40;13.05;;;3.38;;
25481;SDS011;13395;50.752;4.268;2023-02-18T06:56:06;17.63;;;3.85;;
25481;SDS011;13395;50.752;4.268;2023-02-18T06:58:32;15.25;;;2.55;;
25481;SDS011;13395;50.752;4.268;2023-02-18T07:00:57;11.32;;;2.38;;
25481;SDS011;13395;50.752;4.268;2023-02-18T07:03:23;21.08;;;2.65;;
25481;SDS011;13395;50.752;4.268;2023-02-18T07:05:49;12.05;;;2.70;;
25481;SDS011;13395;50.752;4.268;2023-02-18T07:08:15;7.90;;;1.77;;
25481;SDS011;13395;50.752;4.268;2023-02-18T07:10:41;15.30;;;2.35;;
25481;SDS011;13395;50.752;4.268;2023-02-18T07:13:06;13.38;;;3.78;;
25481;SDS011;13395;50.752;4.268;2023-02-18T07:15:32;12.98;;;2.40;;
25481;SDS011;13395;50.752;4.268;2023-02-18T07:17:58;20.23;;;2.50;;
25481;SDS011;13395;50.752;4.268;2023-02-18T07:20:24;16.73;;;2.42;;
25481;SDS011;13395;50.752;4.268;2023-02-18T07:22:50;10.00;;;2.35;;
25481;SDS011;13395;50.752;4.268;2023-02-18T07:25:15;15.20;;;2.35;;
25481;SDS011;13395;50.752;4.268;2023-02-18T07:27:41;12.50;;;2.70;;
25481;SDS011;13395;50.752;4.268;2023-02-18T07:30:07;11.63;;;1.95;;
25481;SDS011;13395;50.752;4.268;2023-02-18T07:32:33;8.15;;;2.63;;
25481;SDS011;13395;50.752;4.268;2023-02-18T07:34:59;12.27;;;2.42;;
25481;SDS011;13395;50.752;4.268;2023-02-18T07:37:25;13.85;;;2.45;;
25481;SDS011;13395;50.752;4.268;2023-02-18T07:39:51;18.80;;;2.90;;
25481;SDS011;13395;50.752;4.268;2023-02-18T07:42:16;12.25;;;1.85;;
25481;SDS011;13395;50.752;4.268;2023-02-18T07:44:42;13.20;;;2.38;;
25481;SDS011;13395;50.752;4.268;2023-02-18T07:47:09;12.77;;;2.38;;
25481;SDS011;13395;50.752;4.268;2023-02-18T07:49:38;15.65;;;2.55;;
25481;SDS011;13395;50.752;4.268;2023-02-18T07:52:03;19.30;;;2.65;;
25481;SDS011;13395;50.752;4.268;2023-02-18T07:54:29;9.27;;;1.83;;
25481;SDS011;13395;50.752;4.268;2023-02-18T07:56:54;10.95;;;2.65;;
25481;SDS011;13395;50.752;4.268;2023-02-18T07:59:20;12.77;;;2.00;;
25481;SDS011;13395;50.752;4.268;2023-02-18T08:01:46;14.02;;;2.45;;
25481;SDS011;13395;50.752;4.268;2023-02-18T08:04:11;20.20;;;2.20;;
25481;SDS011;13395;50.752;4.268;2023-02-18T08:06:40;17.42;;;2.67;;
25481;SDS011;13395;50.752;4.268;2023-02-18T08:09:10;13.82;;;2.45;;
25481;SDS011;13395;50.752;4.268;2023-02-18T08:11:36;10.75;;;2.45;;
25481;SDS011;13395;50.752;4.268;2023-02-18T08:14:02;13.63;;;2.22;;
25481;SDS011;13395;50.752;4.268;2023-02-18T08:16:28;16.33;;;2.30;;
25481;SDS011;13395;50.752;4.268;2023-02-18T08:18:54;14.77;;;2.50;;
25481;SDS011;13395;50.752;4.268;2023-02-18T08:21:20;13.20;;;2.92;;
25481;SDS011;13395;50.752;4.268;2023-02-18T08:23:48;11.90;;;3.28;;
25481;SDS011;13395;50.752;4.268;2023-02-18T08:26:14;14.77;;;3.92;;
25481;SDS011;13395;50.752;4.268;2023-02-18T08:28:41;9.85;;;3.33;;
25481;SDS011;13395;50.752;4.268;2023-02-18T08:31:12;13.15;;;2.28;;
25481;SDS011;13395;50.752;4.268;2023-02-18T08:33:51;10.98;;;1.98;;
25481;SDS011;13395;50.752;4.268;2023-02-18T08:36:18;9.85;;;1.98;;
25481;SDS011;13395;50.752;4.268;2023-02-18T08:38:44;17.63;;;2.15;;
25481;SDS011;13395;50.752;4.268;2023-02-18T08:41:10;5.15;;;1.52;;
25481;SDS011;13395;50.752;4.268;2023-02-18T08:43:38;6.53;;;1.50;;
25481;SDS011;13395;50.752;4.268;2023-02-18T08:46:04;11.77;;;1.52;;
25481;SDS011;13395;50.752;4.268;2023-02-18T08:48:30;9.35;;;1.50;;
25481;SDS011;13395;50.752;4.268;2023-02-18T08:50:56;9.40;;;1.45;;
25481;SDS011;13395;50.752;4.268;2023-02-18T08:53:22;7.25;;;1.50;;
25481;SDS011;13395;50.752;4.268;2023-02-18T08:55:47;12.15;;;1.65;;
25481;SDS011;13395;50.752;4.268;2023-02-18T08:58:13;7.80;;;2.83;;
25481;SDS011;13395;50.752;4.268;2023-02-18T09:00:40;9.88;;;1.60;;
25481;SDS011;13395;50.752;4.268;2023-02-18T09:03:06;10.48;;;1.80;;
25481;SDS011;13395;50.752;4.268;2023-02-18T09:05:34;14.52;;;1.70;;
25481;SDS011;13395;50.752;4.268;2023-02-18T09:07:59;8.27;;;1.55;;
25481;SDS011;13395;50.752;4.268;2023-02-18T09:10:25;7.90;;;1.95;;
25481;SDS011;13395;50.752;4.268;2023-02-18T09:12:51;10.63;;;2.03;;
25481;SDS011;13395;50.752;4.268;2023-02-18T09:15:16;10.55;;;1.60;;
25481;SDS011;13395;50.752;4.268;2023-02-18T09:17:43;9.32;;;2.15;;
25481;SDS011;13395;50.752;4.268;2023-02-18T09:20:09;6.68;;;2.33;;
25481;SDS011;13395;50.752;4.268;2023-02-18T09:22:35;6.38;;;1.50;;
25481;SDS011;13395;50.752;4.268;2023-02-18T09:25:01;7.55;;;1.55;;
25481;SDS011;13395;50.752;4.268;2023-02-18T09:27:27;12.45;;;2.20;;
25481;SDS011;13395;50.752;4.268;2023-02-18T09:29:53;7.50;;;1.52;;
25481;SDS011;13395;50.752;4.268;2023-02-18T09:32:18;4.47;;;1.40;;
25481;SDS011;13395;50.752;4.268;2023-02-18T09:34:44;12.63;;;2.03;;
25481;SDS011;13395;50.752;4.268;2023-02-18T09:37:10;5.85;;;1.65;;
25481;SDS011;13395;50.752;4.268;2023-02-18T09:39:36;8.55;;;1.85;;
25481;SDS011;13395;50.752;4.268;2023-02-18T09:42:06;5.53;;;1.80;;
25481;SDS011;13395;50.752;4.268;2023-02-18T09:50:03;9.30;;;2.10;;
25481;SDS011;13395;50.752;4.268;2023-02-18T09:52:38;13.38;;;2.13;;
25481;SDS011;13395;50.752;4.268;2023-02-18T09:58:24;10.35;;;2.72;;
25481;SDS011;13395;50.752;4.268;2023-02-18T10:00:57;7.97;;;2.17;;
25481;SDS011;13395;50.752;4.268;2023-02-18T10:03:44;9.15;;;2.35;;
25481;SDS011;13395;50.752;4.268;2023-02-18T10:06:21;5.07;;;2.05;;
25481;SDS011;13395;50.752;4.268;2023-02-18T10:08:50;5.95;;;2.47;;
25481;SDS011;13395;50.752;4.268;2023-02-18T10:11:31;9.88;;;2.70;;
25481;SDS011;13395;50.752;4.268;2023-02-18T10:14:04;5.95;;;2.45;;
25481;SDS011;13395;50.752;4.268;2023-02-18T10:16:36;8.13;;;2.65;;
25481;SDS011;13395;50.752;4.268;2023-02-18T10:19:18;6.07;;;2.70;;
25481;SDS011;13395;50.752;4.268;2023-02-18T10:21:47;6.43;;;2.97;;
25481;SDS011;13395;50.752;4.268;2023-02-18T10:27:04;12.63;;;3.10;;
25481;SDS011;13395;50.752;4.268;2023-02-18T10:29:31;6.13;;;2.63;;
25481;SDS011;13395;50.752;4.268;2023-02-18T10:32:06;9.15;;;3.50;;
25481;SDS011;13395;50.752;4.268;2023-02-18T10:35:02;9.15;;;2.58;;
25481;SDS011;13395;50.752;4.268;2023-02-18T10:51:25;7.15;;;3.03;;
25481;SDS011;13395;50.752;4.268;2023-02-18T10:53:54;5.82;;;2.15;;
25481;SDS011;13395;50.752;4.268;2023-02-18T10:56:39;9.40;;;1.70;;
25481;SDS011;13395;50.752;4.268;2023-02-18T10:59:26;5.80;;;2.20;;
25481;SDS011;13395;50.752;4.268;2023-02-18T11:02:02;4.65;;;1.63;;
25481;SDS011;13395;50.752;4.268;2023-02-18T11:04:38;5.95;;;1.52;;
25481;SDS011;13395;50.752;4.268;2023-02-18T11:12:14;8.43;;;2.35;;
25481;SDS011;13395;50.752;4.268;2023-02-18T11:15:35;5.70;;;2.40;;
25481;SDS011;13395;50.752;4.268;2023-02-18T11:17:38;7.82;;;2.47;;
25481;SDS011;13395;50.752;4.268;2023-02-18T11:22:48;7.50;;;2.92;;
25481;SDS011;13395;50.752;4.268;2023-02-18T11:25:21;8.10;;;1.90;;
25481;SDS011;13395;50.752;4.268;2023-02-18T11:27:49;8.07;;;2.55;;
25481;SDS011;13395;50.752;4.268;2023-02-18T11:32:48;4.50;;;2.10;;
25481;SDS011;13395;50.752;4.268;2023-02-18T11:35:19;9.07;;;2.22;;
25481;SDS011;13395;50.752;4.268;2023-02-18T11:37:46;12.02;;;3.30;;
25481;SDS011;13395;50.752;4.268;2023-02-18T11:40:23;11.00;;;2.65;;
25481;SDS011;13395;50.752;4.268;2023-02-18T11:48:34;9.68;;;2.85;;
25481;SDS011;13395;50.752;4.268;2023-02-18T11:51:03;6.30;;;2.22;;
25481;SDS011;13395;50.752;4.268;2023-02-18T11:53:30;4.35;;;2.60;;
25481;SDS011;13395;50.752;4.268;2023-02-18T11:55:59;10.68;;;2.67;;
25481;SDS011;13395;50.752;4.268;2023-02-18T11:58:26;9.27;;;2.45;;
25481;SDS011;13395;50.752;4.268;2023-02-18T12:01:02;10.50;;;2.53;;
25481;SDS011;13395;50.752;4.268;2023-02-18T12:05:57;9.77;;;2.10;;
25481;SDS011;13395;50.752;4.268;2023-02-18T12:08:27;10.77;;;2.30;;
25481;SDS011;13395;50.752;4.268;2023-02-18T12:10:59;10.32;;;2.28;;
25481;SDS011;13395;50.752;4.268;2023-02-18T12:13:47;7.35;;;2.28;;
25481;SDS011;13395;50.752;4.268;2023-02-18T12:16:21;9.48;;;2.33;;
25481;SDS011;13395;50.752;4.268;2023-02-18T12:21:24;12.68;;;2.65;;
25481;SDS011;13395;50.752;4.268;2023-02-18T12:24:11;10.27;;;1.90;;
25481;SDS011;13395;50.752;4.268;2023-02-18T12:43:57;10.65;;;1.30;;
25481;SDS011;13395;50.752;4.268;2023-02-18T12:57:37;7.82;;;1.77;;
25481;SDS011;13395;50.752;4.268;2023-02-18T13:05:37;9.05;;;1.50;;
25481;SDS011;13395;50.752;4.268;2023-02-18T13:11:03;11.75;;;2.35;;
25481;SDS011;13395;50.752;4.268;2023-02-18T13:13:44;14.85;;;1.95;;
25481;SDS011;13395;50.752;4.268;2023-02-18T13:16:18;7.53;;;2.00;;
25481;SDS011;13395;50.752;4.268;2023-02-18T13:18:48;12.13;;;2.13;;
25481;SDS011;13395;50.752;4.268;2023-02-18T13:21:31;8.02;;;2.20;;
25481;SDS011;13395;50.752;4.268;2023-02-18T13:24:01;14.68;;;2.03;;
25481;SDS011;13395;50.752;4.268;2023-02-18T13:26:31;14.32;;;2.72;;
25481;SDS011;13395;50.752;4.268;2023-02-18T13:34:48;7.15;;;1.95;;
25481;SDS011;13395;50.752;4.268;2023-02-18T13:39:46;13.10;;;3.28;;
25481;SDS011;13395;50.752;4.268;2023-02-18T13:52:47;9.25;;;2.83;;
25481;SDS011;13395;50.752;4.268;2023-02-18T13:55:37;13.73;;;2.90;;
25481;SDS011;13395;50.752;4.268;2023-02-18T13:58:14;10.77;;;2.28;;
25481;SDS011;13395;50.752;4.268;2023-02-18T14:00:48;13.02;;;2.17;;
25481;SDS011;13395;50.752;4.268;2023-02-18T14:06:00;10.82;;;2.28;;
25481;SDS011;13395;50.752;4.268;2023-02-18T14:08:36;8.93;;;2.17;;
25481;SDS011;13395;50.752;4.268;2023-02-18T14:16:24;11.13;;;2.17;;
25481;SDS011;13395;50.752;4.268;2023-02-18T14:18:54;11.45;;;2.25;;
25481;SDS011;13395;50.752;4.268;2023-02-18T14:21:22;11.25;;;2.20;;
25481;SDS011;13395;50.752;4.268;2023-02-18T14:24:02;7.15;;;2.10;;
25481;SDS011;13395;50.752;4.268;2023-02-18T14:26:34;12.68;;;2.45;;
25481;SDS011;13395;50.752;4.268;2023-02-18T14:29:07;11.38;;;3.38;;
25481;SDS011;13395;50.752;4.268;2023-02-18T14:31:55;9.30;;;1.80;;
25481;SDS011;13395;50.752;4.268;2023-02-18T14:34:36;6.75;;;2.40;;
25481;SDS011;13395;50.752;4.268;2023-02-18T14:43:16;6.63;;;1.58;;
25481;SDS011;13395;50.752;4.268;2023-02-18T14:45:57;11.88;;;1.73;;
25481;SDS011;13395;50.752;4.268;2023-02-18T14:48:49;9.35;;;2.08;;
25481;SDS011;13395;50.752;4.268;2023-02-18T14:51:30;5.40;;;1.70;;
25481;SDS011;13395;50.752;4.268;2023-02-18T14:54:01;7.28;;;1.80;;
25481;SDS011;13395;50.752;4.268;2023-02-18T14:56:30;5.60;;;1.90;;
25481;SDS011;13395;50.752;4.268;2023-02-18T14:59:01;5.47;;;2.05;;
25481;SDS011;13395;50.752;4.268;2023-02-18T15:01:30;4.97;;;1.33;;
25481;SDS011;13395;50.752;4.268;2023-02-18T15:03:57;6.57;;;1.90;;
25481;SDS011;13395;50.752;4.268;2023-02-18T15:06:33;6.63;;;2.00;;
25481;SDS011;13395;50.752;4.268;2023-02-18T15:09:01;6.05;;;1.52;;
25481;SDS011;13395;50.752;4.268;2023-02-18T15:11:44;6.30;;;2.15;;
25481;SDS011;13395;50.752;4.268;2023-02-18T15:14:35;5.60;;;1.90;;
25481;SDS011;13395;50.752;4.268;2023-02-18T15:17:07;5.32;;;2.20;;
25481;SDS011;13395;50.752;4.268;2023-02-18T15:19:40;6.43;;;1.83;;
25481;SDS011;13395;50.752;4.268;2023-02-18T15:22:15;8.48;;;1.92;;
25481;SDS011;13395;50.752;4.268;2023-02-18T15:24:43;8.10;;;2.20;;
25481;SDS011;13395;50.752;4.268;2023-02-18T15:27:13;5.40;;;2.17;;
25481;SDS011;13395;50.752;4.268;2023-02-18T15:29:41;9.02;;;2.40;;
25481;SDS011;13395;50.752;4.268;2023-02-18T15:34:39;7.78;;;1.88;;
25481;SDS011;13395;50.752;4.268;2023-02-18T15:37:07;5.25;;;2.00;;
25481;SDS011;13395;50.752;4.268;2023-02-18T15:39:37;5.60;;;1.60;;
25481;SDS011;13395;50.752;4.268;2023-02-18T15:42:08;3.58;;;1.42;;
25481;SDS011;13395;50.752;4.268;2023-02-18T15:44:55;7.70;;;1.77;;
25481;SDS011;13395;50.752;4.268;2023-02-18T15:47:27;4.72;;;1.83;;
25481;SDS011;13395;50.752;4.268;2023-02-18T15:49:57;5.15;;;1.65;;
25481;SDS011;13395;50.752;4.268;2023-02-18T15:52:26;3.22;;;1.58;;
25481;SDS011;13395;50.752;4.268;2023-02-18T15:54:55;4.72;;;1.83;;
25481;SDS011;13395;50.752;4.268;2023-02-18T15:57:27;5.75;;;1.55;;
25481;SDS011;13395;50.752;4.268;2023-02-18T15:59:59;4.90;;;1.95;;
25481;SDS011;13395;50.752;4.268;2023-02-18T16:02:48;6.65;;;1.73;;
25481;SDS011;13395;50.752;4.268;2023-02-18T16:05:23;3.90;;;1.50;;
25481;SDS011;13395;50.752;4.268;2023-02-18T16:07:51;6.53;;;1.80;;
25481;SDS011;13395;50.752;4.268;2023-02-18T16:10:22;4.13;;;1.52;;
25481;SDS011;13395;50.752;4.268;2023-02-18T16:13:01;5.60;;;2.25;;
25481;SDS011;13395;50.752;4.268;2023-02-18T16:15:28;7.78;;;1.60;;
25481;SDS011;13395;50.752;4.268;2023-02-18T16:17:56;5.47;;;2.10;;
25481;SDS011;13395;50.752;4.268;2023-02-18T16:20:28;9.13;;;2.22;;
25481;SDS011;13395;50.752;4.268;2023-02-18T16:23:00;6.57;;;1.92;;
25481;SDS011;13395;50.752;4.268;2023-02-18T16:30:35;5.43;;;2.05;;
25481;SDS011;13395;50.752;4.268;2023-02-18T16:33:01;8.98;;;2.72;;
25481;SDS011;13395;50.752;4.268;2023-02-18T16:35:28;6.57;;;2.60;;
25481;SDS011;13395;50.752;4.268;2023-02-18T16:37:55;10.20;;;2.55;;
25481;SDS011;13395;50.752;4.268;2023-02-18T16:40:24;7.78;;;2.90;;
25481;SDS011;13395;50.752;4.268;2023-02-18T16:43:21;6.50;;;3.72;;
25481;SDS011;13395;50.752;4.268;2023-02-18T16:45:49;7.35;;;2.92;;
25481;SDS011;13395;50.752;4.268;2023-02-18T16:48:28;5.45;;;3.17;;
25481;SDS011;13395;50.752;4.268;2023-02-18T16:51:12;8.10;;;3.53;;
25481;SDS011;13395;50.752;4.268;2023-02-18T16:53:41;5.90;;;3.53;;
25481;SDS011;13395;50.752;4.268;2023-02-18T16:56:14;15.68;;;3.92;;
25481;SDS011;13395;50.752;4.268;2023-02-18T16:58:44;5.68;;;3.75;;
25481;SDS011;13395;50.752;4.268;2023-02-18T17:01:19;5.72;;;3.85;;
25481;SDS011;13395;50.752;4.268;2023-02-18T17:03:48;6.90;;;4.35;;
25481;SDS011;13395;50.752;4.268;2023-02-18T17:06:14;12.25;;;5.13;;
25481;SDS011;13395;50.752;4.268;2023-02-18T17:08:40;13.18;;;6.15;;
25481;SDS011;13395;50.752;4.268;2023-02-18T17:11:08;13.20;;;6.53;;
25481;SDS011;13395;50.752;4.268;2023-02-18T17:13:40;8.02;;;5.10;;
25481;SDS011;13395;50.752;4.268;2023-02-18T17:16:07;14.52;;;6.57;;
25481;SDS011;13395;50.752;4.268;2023-02-18T17:18:34;14.18;;;6.43;;
25481;SDS011;13395;50.752;4.268;2023-02-18T17:21:00;10.77;;;6.57;;
25481;SDS011;13395;50.752;4.268;2023-02-18T17:23:27;11.52;;;6.88;;
25481;SDS011;13395;50.752;4.268;2023-02-18T17:25:52;13.20;;;8.57;;
25481;SDS011;13395;50.752;4.268;2023-02-18T17:28:18;18.10;;;8.07;;
25481;SDS011;13395;50.752;4.268;2023-02-18T17:30:50;13.50;;;9.50;;
25481;SDS011;13395;50.752;4.268;2023-02-18T17:33:20;11.30;;;7.35;;
25481;SDS011;13395;50.752;4.268;2023-02-18T17:35:46;12.57;;;8.40;;
25481;SDS011;13395;50.752;4.268;2023-02-18T17:38:13;14.30;;;9.02;;